Time;durP1;ratioP1;P1;durP2;ratioP2;P2;SDS_P1;SDS_P2;PMS_P1;PMS_P2;Temp;Humidity;BMP_temperature;BMP_pressure;BME280_temperature;BME280_humidity;BME280_pressure;Samples;Min_cycle;Max_cycle;Signal;HPM_P1;HPM_P2
2022/05/13 00:00:56;;;;;;;6.43;4.30;;;14.60;92.00;;;;;;4928409;29;20201;-80
2022/05/13 00:03:22;;;;;;;6.00;4.10;;;14.50;92.40;;;;;;4928240;29;20242;-79
2022/05/13 00:05:49;;;;;;;22.60;11.67;;;14.40;92.80;;;;;;4926705;29;20240;-78
2022/05/13 00:08:14;;;;;;;4.17;3.73;;;14.40;92.40;;;;;;4928302;29;20360;-72
2022/05/13 00:10:40;;;;;;;8.77;6.90;;;14.40;92.40;;;;;;4926367;29;20813;-77
2022/05/13 00:13:05;;;;;;;4.67;3.70;;;14.40;92.80;;;;;;4927377;29;20179;-75
2022/05/13 00:15:31;;;;;;;4.77;4.27;;;14.40;92.80;;;;;;4927650;29;20355;-74
2022/05/13 00:17:57;;;;;;;4.47;4.07;;;14.40;93.50;;;;;;4925899;29;20650;-76
2022/05/13 00:20:24;;;;;;;4.53;3.43;;;14.30;94.40;;;;;;4927866;29;20654;-83
2022/05/13 00:22:55;;;;;;;4.40;3.33;;;14.20;95.10;;;;;;4928088;29;20972;-82
2022/05/13 00:25:23;;;;;;;5.17;4.23;;;14.10;96.90;;;;;;4927722;29;20247;-78
2022/05/13 00:27:49;;;;;;;4.00;3.67;;;13.90;96.10;;;;;;4926456;29;20215;-78
2022/05/13 00:30:15;;;;;;;4.23;3.83;;;13.90;97.00;;;;;;4928224;29;20286;-77
2022/05/13 00:32:41;;;;;;;3.80;3.50;;;13.90;96.70;;;;;;4928373;29;20688;-86
2022/05/13 00:35:08;;;;;;;5.27;3.87;;;13.90;97.50;;;;;;4924136;29;20242;-76
2022/05/13 00:37:34;;;;;;;4.13;3.73;;;13.80;97.40;;;;;;4923928;29;20206;-72
2022/05/13 00:39:59;;;;;;;3.73;3.33;;;13.90;97.50;;;;;;4914343;29;20238;-68
2022/05/13 00:42:25;;;;;;;3.70;3.43;;;14.00;97.30;;;;;;4926269;29;20235;-67
2022/05/13 00:44:51;;;;;;;4.63;4.20;;;13.90;97.30;;;;;;4927496;29;20294;-66
2022/05/13 00:47:16;;;;;;;4.60;3.07;;;13.80;97.70;;;;;;4925816;29;20210;-67
2022/05/13 00:49:43;;;;;;;4.50;4.10;;;13.80;97.60;;;;;;4927541;29;20716;-68
2022/05/13 00:52:10;;;;;;;5.03;4.43;;;13.80;97.60;;;;;;4925702;29;20211;-69
2022/05/13 00:54:38;;;;;;;6.30;3.87;;;13.90;97.50;;;;;;4927366;29;21054;-67
2022/05/13 00:57:05;;;;;;;3.50;3.27;;;13.90;97.80;;;;;;4925680;29;20242;-68
2022/05/13 00:59:34;;;;;;;4.90;4.30;;;13.80;98.20;;;;;;4927587;29;20270;-68
2022/05/13 01:01:59;;;;;;;4.57;4.20;;;13.80;98.10;;;;;;4924691;29;20237;-69
2022/05/13 01:04:26;;;;;;;5.40;4.70;;;13.70;98.10;;;;;;4931170;29;20332;-69
2022/05/13 01:06:54;;;;;;;4.77;3.97;;;13.60;97.90;;;;;;4929117;29;20729;-69
2022/05/13 01:09:21;;;;;;;4.40;4.00;;;13.60;98.40;;;;;;4930691;29;20328;-69
2022/05/13 01:11:52;;;;;;;5.17;3.87;;;13.50;98.30;;;;;;4929219;29;20222;-69
2022/05/13 01:14:22;;;;;;;6.63;4.13;;;13.50;98.90;;;;;;4931281;29;20199;-69
2022/05/13 01:19:32;;;;;;;4.97;4.27;;;13.50;99.50;;;;;;4931163;29;20311;-69
2022/05/13 01:22:14;;;;;;;7.47;4.83;;;13.50;99.80;;;;;;4928950;29;20294;-69
2022/05/13 01:24:41;;;;;;;9.30;4.10;;;13.40;99.90;;;;;;4917927;29;20187;-69
2022/05/13 01:27:07;;;;;;;4.80;4.33;;;13.40;99.90;;;;;;4928641;29;20218;-69
2022/05/13 01:29:32;;;;;;;4.70;4.20;;;13.30;99.90;;;;;;4930982;29;20210;-69
2022/05/13 01:31:58;;;;;;;5.80;4.50;;;13.30;99.90;;;;;;4929016;29;20230;-69
2022/05/13 01:34:23;;;;;;;7.73;5.40;;;13.30;99.90;;;;;;4930577;29;20206;-69
2022/05/13 01:36:49;;;;;;;7.43;5.33;;;13.20;99.90;;;;;;4928337;29;20682;-68
2022/05/13 01:39:14;;;;;;;9.40;5.73;;;13.10;99.90;;;;;;4915161;29;20226;-69
2022/05/13 01:41:39;;;;;;;6.70;5.00;;;13.10;99.90;;;;;;4928496;29;20269;-68
2022/05/13 01:44:05;;;;;;;7.13;5.50;;;13.10;99.90;;;;;;4930512;29;20194;-68
2022/05/13 01:46:31;;;;;;;8.33;5.63;;;13.10;99.90;;;;;;4928393;29;20264;-67
2022/05/13 01:48:56;;;;;;;8.27;5.03;;;13.00;99.90;;;;;;4930363;29;20210;-68
2022/05/13 01:51:22;;;;;;;5.27;4.70;;;13.00;99.90;;;;;;4928253;29;20206;-68
2022/05/13 01:53:48;;;;;;;9.13;5.83;;;13.00;99.90;;;;;;4930236;29;20191;-68
2022/05/13 01:56:14;;;;;;;10.40;6.00;;;12.90;99.90;;;;;;4928568;29;20314;-68
2022/05/13 01:58:40;;;;;;;9.37;7.53;;;12.80;99.90;;;;;;4930547;29;20724;-68
2022/05/13 02:01:08;;;;;;;9.77;6.60;;;12.80;99.90;;;;;;4928295;29;20270;-69
2022/05/13 02:03:46;;;;;;;8.37;6.00;;;12.70;99.90;;;;;;4931003;29;20205;-69
2022/05/13 02:06:23;;;;;;;10.27;6.17;;;12.70;99.90;;;;;;4923610;29;20211;-69
2022/05/13 02:08:51;;;;;;;9.77;6.60;;;12.60;99.90;;;;;;4930414;29;20175;-69
2022/05/13 02:11:18;;;;;;;15.97;7.20;;;12.70;99.90;;;;;;4927735;29;20203;-67
2022/05/13 02:13:43;;;;;;;10.93;6.37;;;12.70;99.90;;;;;;4929031;29;20228;-68
2022/05/13 02:16:10;;;;;;;9.77;5.97;;;12.50;99.90;;;;;;4927638;29;20206;-67
2022/05/13 02:18:36;;;;;;;5.67;5.10;;;12.50;99.90;;;;;;4929902;29;20516;-68
2022/05/13 02:21:03;;;;;;;6.77;5.43;;;12.50;99.90;;;;;;4927694;29;20214;-67
2022/05/13 02:23:28;;;;;;;6.27;5.63;;;12.40;99.90;;;;;;4929696;29;20234;-68
2022/05/13 02:26:03;;;;;;;8.17;6.17;;;12.40;99.90;;;;;;4927703;29;21110;-68
2022/05/13 02:28:30;;;;;;;8.20;6.23;;;12.40;99.90;;;;;;4929487;29;20205;-67
2022/05/13 02:30:56;;;;;;;6.60;5.10;;;12.30;99.90;;;;;;4928770;29;20207;-67
2022/05/13 02:33:21;;;;;;;10.00;6.30;;;12.40;99.90;;;;;;4928683;29;20544;-67
2022/05/13 02:35:47;;;;;;;10.47;6.70;;;12.40;99.90;;;;;;4919881;29;20265;-67
2022/05/13 02:38:14;;;;;;;15.30;6.77;;;12.40;99.90;;;;;;4927129;29;20216;-67
2022/05/13 02:43:23;;;;;;;8.20;5.97;;;12.40;99.90;;;;;;4925666;29;20218;-68
2022/05/13 02:45:48;;;;;;;7.93;6.33;;;12.40;99.90;;;;;;4929255;29;20218;-68
2022/05/13 02:48:14;;;;;;;7.93;6.10;;;12.30;99.90;;;;;;4927586;29;20207;-68
2022/05/13 02:50:40;;;;;;;7.47;6.43;;;12.20;99.90;;;;;;4929120;29;20187;-67
2022/05/13 02:53:06;;;;;;;8.20;6.53;;;12.30;99.90;;;;;;4919641;29;20294;-66
2022/05/13 02:55:32;;;;;;;7.83;6.50;;;12.30;99.90;;;;;;4928935;29;20206;-67
2022/05/13 02:57:57;;;;;;;7.20;5.87;;;12.30;99.90;;;;;;4927273;29;20212;-67
2022/05/13 03:00:23;;;;;;;6.87;6.13;;;12.20;99.90;;;;;;4929077;29;20645;-67
2022/05/13 03:02:49;;;;;;;8.80;7.03;;;12.10;99.90;;;;;;4926859;29;20234;-66
2022/05/13 03:05:14;;;;;;;6.97;6.27;;;12.00;99.90;;;;;;4928729;29;20217;-67
2022/05/13 03:07:40;;;;;;;6.90;6.17;;;12.00;99.90;;;;;;4927145;29;20663;-68
2022/05/13 03:10:08;;;;;;;7.80;6.20;;;12.00;99.90;;;;;;4928661;29;20191;-68
2022/05/13 03:12:35;;;;;;;10.27;7.20;;;12.00;99.90;;;;;;4926819;29;20519;-67
2022/05/13 03:15:00;;;;;;;9.97;7.37;;;12.00;99.90;;;;;;4928577;29;20194;-68
2022/05/13 03:17:26;;;;;;;7.27;6.57;;;11.90;99.90;;;;;;4918984;29;20213;-68
2022/05/13 03:19:51;;;;;;;10.20;6.83;;;11.90;99.90;;;;;;4928925;29;20187;-68
2022/05/13 03:22:17;;;;;;;10.13;7.00;;;12.00;99.90;;;;;;4926862;29;20224;-68
2022/05/13 03:24:42;;;;;;;10.83;8.37;;;12.00;99.90;;;;;;4928566;29;20273;-68
2022/05/13 03:27:08;;;;;;;8.83;7.33;;;12.10;99.90;;;;;;4926557;29;20340;-68
2022/05/13 03:29:35;;;;;;;7.53;6.73;;;12.10;99.90;;;;;;4928570;29;20190;-67
2022/05/13 03:32:03;;;;;;;21.10;12.47;;;12.10;99.90;;;;;;4926448;29;20296;-68
2022/05/13 03:34:29;;;;;;;8.17;7.07;;;12.00;99.90;;;;;;4928728;29;20713;-68
2022/05/13 03:36:54;;;;;;;26.73;14.47;;;12.00;99.90;;;;;;4926636;29;20293;-68
2022/05/13 03:39:20;;;;;;;10.23;7.50;;;12.00;99.90;;;;;;4928284;29;20210;-68
2022/05/13 03:41:45;;;;;;;11.43;8.10;;;12.00;99.90;;;;;;4926160;29;20199;-68
2022/05/13 03:44:11;;;;;;;11.27;8.17;;;11.90;99.90;;;;;;4928322;29;20205;-68
2022/05/13 03:46:37;;;;;;;13.20;7.73;;;11.90;99.90;;;;;;4928195;29;20658;-68
2022/05/13 03:49:02;;;;;;;9.77;7.70;;;11.90;99.90;;;;;;4925627;29;20201;-68
2022/05/13 03:51:28;;;;;;;13.27;7.73;;;12.00;99.90;;;;;;4926648;29;20207;-68
2022/05/13 03:53:54;;;;;;;8.33;7.53;;;12.00;99.90;;;;;;4926395;29;20199;-68
2022/05/13 03:56:20;;;;;;;7.77;7.07;;;12.00;99.90;;;;;;4927814;29;20209;-67
2022/05/13 03:58:46;;;;;;;13.17;7.53;;;11.90;99.90;;;;;;4926203;29;20206;-68
2022/05/13 04:01:11;;;;;;;8.90;7.43;;;11.80;99.90;;;;;;4927953;29;20206;-67
2022/05/13 04:03:37;;;;;;;8.60;7.00;;;11.90;99.90;;;;;;4922300;29;20261;-68
2022/05/13 04:08:56;;;;;;;10.40;7.50;;;12.00;99.90;;;;;;4923535;29;20214;-68
2022/05/13 04:11:23;;;;;;;7.90;7.30;;;11.90;99.90;;;;;;4920837;29;20252;-67
2022/05/13 04:16:33;;;;;;;7.70;6.87;;;11.90;99.90;;;;;;4915732;29;20270;-67
2022/05/13 04:18:58;;;;;;;12.70;7.83;;;12.00;99.90;;;;;;4926540;29;20658;-67
2022/05/13 04:21:28;;;;;;;7.70;6.97;;;12.10;99.90;;;;;;4927272;29;20202;-67
2022/05/13 04:23:56;;;;;;;9.63;6.93;;;12.10;99.90;;;;;;4925933;29;20579;-67
2022/05/13 04:26:22;;;;;;;8.80;7.13;;;12.30;99.90;;;;;;4927154;29;20696;-67
2022/05/13 04:28:50;;;;;;;8.90;7.10;;;12.20;99.90;;;;;;4925935;29;20301;-68
2022/05/13 04:31:20;;;;;;;8.30;7.50;;;12.20;99.90;;;;;;4927409;29;20806;-68
2022/05/13 04:33:46;;;;;;;7.83;6.83;;;12.20;99.90;;;;;;4925752;29;20281;-68
2022/05/13 04:36:12;;;;;;;8.17;7.43;;;12.30;99.90;;;;;;4927290;29;20233;-67
2022/05/13 04:38:38;;;;;;;8.43;7.63;;;12.40;99.90;;;;;;4929813;29;20226;-68
2022/05/13 04:43:49;;;;;;;6.87;6.27;;;12.40;99.90;;;;;;4927021;29;20264;-67
2022/05/13 04:46:15;;;;;;;7.73;7.13;;;12.50;99.90;;;;;;4931007;29;20332;-68
2022/05/13 04:48:41;;;;;;;7.70;7.00;;;12.50;99.90;;;;;;4929178;29;20214;-68
2022/05/13 04:51:08;;;;;;;8.00;7.30;;;12.60;99.90;;;;;;4931189;29;20273;-68
2022/05/13 04:53:37;;;;;;;8.13;7.33;;;12.60;99.90;;;;;;4929550;29;20672;-68
2022/05/13 04:56:07;;;;;;;9.87;7.77;;;12.60;99.90;;;;;;4931405;29;20269;-68
2022/05/13 04:58:33;;;;;;;9.47;8.03;;;12.60;99.90;;;;;;4929219;29;20562;-70
2022/05/13 05:01:00;;;;;;;8.60;7.80;;;12.60;99.90;;;;;;4930992;29;20562;-70
2022/05/13 05:03:28;;;;;;;9.47;7.80;;;12.70;99.90;;;;;;4926906;29;20207;-69
2022/05/13 05:05:58;;;;;;;9.60;8.70;;;12.70;99.90;;;;;;4930847;29;20579;-68
2022/05/13 05:08:24;;;;;;;12.03;10.83;;;12.70;99.90;;;;;;4928595;29;20297;-68
2022/05/13 05:10:49;;;;;;;8.27;7.40;;;12.80;99.90;;;;;;4930862;29;20807;-69
2022/05/13 05:13:24;;;;;;;10.50;9.47;;;12.80;99.90;;;;;;4928834;29;20191;-68
2022/05/13 05:15:49;;;;;;;8.23;7.10;;;12.80;99.90;;;;;;4930948;29;20684;-69
2022/05/13 05:18:16;;;;;;;9.73;8.57;;;12.80;99.90;;;;;;4926629;29;20207;-68
2022/05/13 05:20:43;;;;;;;7.67;6.97;;;12.90;99.90;;;;;;4930918;29;20274;-69
2022/05/13 05:23:14;;;;;;;11.70;8.00;;;12.90;99.90;;;;;;4928318;29;20210;-69
2022/05/13 05:25:40;;;;;;;7.50;6.80;;;13.00;99.90;;;;;;4930605;29;20333;-69
2022/05/13 05:28:05;;;;;;;7.80;7.10;;;13.10;99.90;;;;;;4928471;29;20191;-68
2022/05/13 05:30:31;;;;;;;7.50;6.80;;;13.20;99.90;;;;;;4930295;29;20246;-69
2022/05/13 05:32:56;;;;;;;6.93;6.20;;;13.20;99.90;;;;;;4930189;29;20201;-68
2022/05/13 05:35:23;;;;;;;8.93;6.47;;;13.30;99.90;;;;;;4927959;29;20451;-67
2022/05/13 05:37:48;;;;;;;7.40;6.43;;;13.40;99.90;;;;;;4930734;29;20197;-67
2022/05/13 05:40:14;;;;;;;14.90;7.67;;;13.50;99.90;;;;;;4927991;29;20215;-67
2022/05/13 05:42:41;;;;;;;10.37;6.17;;;13.60;99.90;;;;;;4929647;29;20226;-68
2022/05/13 05:45:10;;;;;;;8.50;7.00;;;13.70;99.90;;;;;;4928090;29;20344;-67
2022/05/13 05:47:36;;;;;;;7.13;6.43;;;13.90;99.90;;;;;;4929769;29;20191;-67
2022/05/13 05:50:08;;;;;;;7.10;6.43;;;13.90;99.90;;;;;;4928134;29;20199;-68
2022/05/13 05:52:33;;;;;;;8.47;6.23;;;14.00;99.90;;;;;;4921491;29;20199;-67
2022/05/13 05:58:04;;;;;;;7.47;6.37;;;14.20;99.90;;;;;;4925346;29;20227;-68
2022/05/13 06:00:32;;;;;;;10.23;6.27;;;14.30;99.90;;;;;;4928801;29;20202;-67
2022/05/13 06:02:58;;;;;;;7.57;6.43;;;14.50;99.90;;;;;;4929485;29;20214;-67
2022/05/13 06:05:25;;;;;;;9.50;5.00;;;14.60;99.90;;;;;;4927946;29;20226;-68
2022/05/13 06:07:51;;;;;;;6.13;5.53;;;14.80;99.90;;;;;;4929633;29;20361;-67
2022/05/13 06:10:17;;;;;;;9.37;6.00;;;14.90;99.90;;;;;;4927482;29;20211;-68
2022/05/13 06:12:43;;;;;;;6.43;4.80;;;15.00;99.90;;;;;;4929124;29;20206;-68
2022/05/13 06:15:10;;;;;;;7.73;5.27;;;15.30;99.90;;;;;;4927769;29;20391;-69
2022/05/13 06:17:45;;;;;;;5.00;4.53;;;15.40;99.90;;;;;;4929235;29;20226;-69
2022/05/13 06:20:11;;;;;;;7.13;4.93;;;15.40;99.90;;;;;;4928095;29;20302;-68
2022/05/13 06:22:37;;;;;;;6.10;5.33;;;15.70;99.90;;;;;;4929291;29;20249;-68
2022/05/13 06:25:04;;;;;;;7.03;4.83;;;15.80;99.90;;;;;;4927437;29;20206;-68
2022/05/13 06:27:29;;;;;;;8.93;6.10;;;15.80;99.90;;;;;;4924048;29;20303;-68
2022/05/13 06:29:56;;;;;;;6.00;5.17;;;15.90;99.90;;;;;;4927570;29;20317;-68
2022/05/13 06:32:22;;;;;;;5.57;5.07;;;16.00;99.90;;;;;;4928929;29;20194;-68
2022/05/13 06:34:47;;;;;;;7.77;6.40;;;15.90;99.90;;;;;;4925158;29;20230;-68
2022/05/13 06:37:13;;;;;;;6.13;5.37;;;16.00;99.90;;;;;;4929087;29;20191;-70
2022/05/13 06:39:38;;;;;;;6.10;5.70;;;16.10;99.80;;;;;;4927179;29;20207;-69
2022/05/13 06:42:04;;;;;;;8.17;6.40;;;16.20;99.20;;;;;;4929294;29;20930;-67
2022/05/13 06:44:29;;;;;;;9.60;7.13;;;16.20;99.30;;;;;;4926618;29;20261;-69
2022/05/13 06:46:55;;;;;;;7.13;6.50;;;16.30;98.90;;;;;;4928327;29;20210;-69
2022/05/13 06:49:20;;;;;;;7.73;6.47;;;16.40;98.20;;;;;;4924929;29;20202;-68
2022/05/13 06:51:46;;;;;;;8.23;6.47;;;16.50;98.30;;;;;;4928322;29;20207;-68
2022/05/13 06:54:12;;;;;;;7.10;6.50;;;16.60;97.90;;;;;;4926495;29;20246;-68
2022/05/13 06:56:41;;;;;;;8.93;6.43;;;16.70;97.40;;;;;;4928275;29;20746;-69
2022/05/13 06:59:08;;;;;;;9.20;6.17;;;16.70;97.30;;;;;;4925714;29;20886;-67
2022/05/13 07:01:34;;;;;;;7.30;5.87;;;16.70;97.30;;;;;;4927899;29;20257;-68
2022/05/13 07:03:59;;;;;;;8.70;6.83;;;16.60;97.40;;;;;;4926195;29;20204;-68
2022/05/13 07:06:25;;;;;;;7.10;6.00;;;16.50;97.50;;;;;;4928332;29;20261;-67
2022/05/13 07:08:50;;;;;;;10.20;7.80;;;16.60;97.40;;;;;;4925879;29;20250;-68
2022/05/13 07:11:17;;;;;;;9.03;6.77;;;16.50;97.30;;;;;;4927998;29;20211;-67
2022/05/13 07:13:43;;;;;;;7.80;6.20;;;16.70;97.30;;;;;;4925879;29;20227;-68
2022/05/13 07:16:09;;;;;;;9.20;7.17;;;16.80;97.20;;;;;;4927115;29;20646;-68
2022/05/13 07:18:36;;;;;;;7.73;6.70;;;16.70;97.00;;;;;;4925904;29;20214;-67
2022/05/13 07:21:05;;;;;;;7.80;6.97;;;17.00;97.30;;;;;;4927689;29;20183;-70
2022/05/13 07:23:31;;;;;;;13.73;7.33;;;17.00;96.60;;;;;;4925779;29;20214;-70
2022/05/13 07:26:01;;;;;;;8.43;7.27;;;17.20;96.10;;;;;;4927432;29;20215;-70
2022/05/13 07:28:26;;;;;;;9.60;7.40;;;17.00;95.50;;;;;;4925649;29;20214;-69
2022/05/13 07:30:53;;;;;;;8.87;7.50;;;16.90;95.20;;;;;;4927482;29;20899;-77
2022/05/13 07:33:19;;;;;;;8.17;6.87;;;16.90;95.60;;;;;;4925906;29;20596;-67
2022/05/13 07:35:45;;;;;;;9.87;6.97;;;16.70;99.90;;;;;;4927417;29;20241;-69
2022/05/13 07:38:10;;;;;;;12.80;6.83;;;16.60;98.90;;;;;;4925014;29;20550;-68
2022/05/13 07:43:20;;;;;;;11.23;8.17;;;16.90;97.90;;;;;;4923383;29;20484;-70
2022/05/13 07:45:46;;;;;;;8.20;6.60;;;16.70;96.90;;;;;;4927704;29;20915;-69
2022/05/13 07:48:11;;;;;;;9.67;6.23;;;16.70;97.10;;;;;;4925755;29;20294;-70
2022/05/13 07:50:37;;;;;;;8.33;6.77;;;16.80;97.00;;;;;;4925157;29;20184;-70
2022/05/13 07:53:04;;;;;;;16.10;7.83;;;16.90;96.60;;;;;;4927714;29;20756;-69
2022/05/13 07:55:29;;;;;;;7.57;6.70;;;17.00;96.80;;;;;;4925880;29;20216;-68
2022/05/13 07:57:55;;;;;;;10.20;6.50;;;17.00;96.40;;;;;;4925335;29;20573;-67
2022/05/13 08:00:26;;;;;;;7.73;6.93;;;16.80;96.70;;;;;;4925583;29;20694;-67
2022/05/13 08:03:06;;;;;;;8.03;7.30;;;16.90;96.00;;;;;;4927564;29;20250;-67
2022/05/13 08:05:47;;;;;;;7.97;7.13;;;16.80;96.50;;;;;;4924621;29;20222;-68
2022/05/13 08:08:18;;;;;;;10.43;6.37;;;16.70;96.30;;;;;;4924841;29;20891;-70
2022/05/13 08:10:52;;;;;;;10.17;7.53;;;16.70;96.10;;;;;;4925054;29;20716;-69
2022/05/13 08:13:18;;;;;;;8.53;7.10;;;16.40;96.30;;;;;;4924994;29;20206;-69
2022/05/13 08:15:44;;;;;;;8.23;7.37;;;16.40;96.40;;;;;;4927041;29;20195;-68
2022/05/13 08:18:10;;;;;;;10.53;7.60;;;16.40;97.20;;;;;;4924576;29;20281;-68
2022/05/13 08:20:36;;;;;;;9.03;7.27;;;16.30;97.00;;;;;;4927052;29;20705;-68
2022/05/13 08:23:02;;;;;;;7.93;7.20;;;16.40;97.10;;;;;;4925190;29;20221;-70
2022/05/13 08:25:27;;;;;;;8.60;7.17;;;16.30;97.40;;;;;;4927111;29;20589;-70
2022/05/13 08:27:53;;;;;;;8.17;7.43;;;16.30;97.70;;;;;;4925136;29;20215;-69
2022/05/13 08:30:19;;;;;;;8.57;7.40;;;16.10;97.90;;;;;;4927102;29;20194;-71
2022/05/13 08:32:45;;;;;;;9.70;7.43;;;16.20;98.50;;;;;;4923840;29;20214;-67
2022/05/13 08:35:12;;;;;;;12.37;7.77;;;16.00;98.70;;;;;;4926975;29;20231;-68
2022/05/13 08:37:52;;;;;;;8.20;7.40;;;16.00;99.40;;;;;;4925748;29;20707;-69
2022/05/13 08:40:35;;;;;;;10.23;7.97;;;16.10;99.20;;;;;;4927188;29;20245;-68
2022/05/13 08:43:07;;;;;;;9.73;7.77;;;16.00;99.20;;;;;;4913659;29;20504;-72
2022/05/13 08:45:32;;;;;;;11.80;8.73;;;16.00;99.10;;;;;;4926550;29;20412;-69
2022/05/13 08:47:59;;;;;;;10.23;8.47;;;16.00;98.90;;;;;;4922799;29;20772;-66
2022/05/13 08:50:42;;;;;;;8.63;6.97;;;16.00;99.10;;;;;;4927128;29;20186;-71
2022/05/13 08:53:31;;;;;;;8.77;7.50;;;16.00;99.00;;;;;;4924641;29;20199;-72
2022/05/13 08:56:01;;;;;;;8.20;7.47;;;16.10;99.00;;;;;;4927084;29;20202;-72
2022/05/13 08:58:52;;;;;;;10.53;7.00;;;16.50;98.40;;;;;;4912398;29;20214;-71
2022/05/13 09:01:29;;;;;;;8.80;7.87;;;16.60;97.80;;;;;;4923592;29;20223;-71
2022/05/13 09:04:01;;;;;;;8.17;7.37;;;16.90;97.50;;;;;;4916297;29;20202;-71
2022/05/13 09:06:41;;;;;;;7.20;6.53;;;16.90;96.90;;;;;;4920879;29;20686;-71
2022/05/13 09:09:10;;;;;;;7.63;6.13;;;17.10;96.30;;;;;;4924724;29;20306;-66
2022/05/13 09:11:39;;;;;;;7.37;6.63;;;17.20;96.50;;;;;;4917718;29;20226;-65
2022/05/13 09:14:25;;;;;;;9.90;6.93;;;17.20;96.00;;;;;;4925161;29;20207;-65
2022/05/13 09:17:12;;;;;;;6.33;5.13;;;17.40;95.20;;;;;;4925413;29;20205;-68
2022/05/13 09:20:13;;;;;;;8.23;5.53;;;17.50;94.50;;;;;;4924901;29;20220;-67
2022/05/13 09:22:43;;;;;;;5.80;5.27;;;17.50;94.70;;;;;;4900372;29;20762;-67
2022/05/13 09:25:33;;;;;;;9.53;5.03;;;17.60;95.20;;;;;;4929811;29;20852;-66
2022/05/13 09:28:00;;;;;;;8.23;4.37;;;17.70;93.60;;;;;;4925478;29;20226;-68
2022/05/13 09:30:35;;;;;;;8.10;4.97;;;17.50;93.90;;;;;;4929998;29;20200;-66
2022/05/13 09:33:22;;;;;;;8.50;6.33;;;17.30;93.40;;;;;;4914949;29;20195;-65
2022/05/13 09:35:52;;;;;;;5.37;3.30;;;17.40;92.50;;;;;;4928972;29;20237;-65
2022/05/13 09:38:23;;;;;;;5.10;3.30;;;17.40;92.10;;;;;;4927259;29;20200;-66
2022/05/13 09:41:02;;;;;;;7.33;3.70;;;17.80;91.60;;;;;;4927993;29;20614;-65
2022/05/13 09:43:38;;;;;;;8.23;3.97;;;18.10;90.50;;;;;;4927302;29;20211;-67
2022/05/13 09:46:10;;;;;;;7.67;4.60;;;18.10;90.20;;;;;;4929320;29;20231;-65
2022/05/13 09:48:38;;;;;;;6.87;3.50;;;18.00;90.40;;;;;;4926543;29;20227;-67
2022/05/13 09:51:30;;;;;;;8.50;3.87;;;18.20;90.40;;;;;;4928629;29;20259;-69
2022/05/13 09:54:20;;;;;;;6.93;4.27;;;18.10;90.60;;;;;;4926636;29;20228;-69
2022/05/13 09:56:48;;;;;;;6.53;4.10;;;18.30;89.90;;;;;;4928524;29;20197;-69
2022/05/13 09:59:23;;;;;;;6.43;3.70;;;18.00;89.60;;;;;;4927061;29;20204;-69
2022/05/13 10:01:49;;;;;;;7.37;4.33;;;18.20;90.70;;;;;;4928513;29;20200;-69
2022/05/13 10:04:26;;;;;;;8.47;4.33;;;18.40;90.40;;;;;;4922770;29;20206;-69
2022/05/13 10:07:04;;;;;;;6.50;3.50;;;18.40;90.10;;;;;;4926717;29;20268;-69
2022/05/13 10:15:31;;;;;;;4.00;3.00;;;18.70;89.30;;;;;;4928866;29;20202;-66
2022/05/13 10:18:17;;;;;;;8.87;3.83;;;18.80;87.60;;;;;;4926735;29;20210;-66
2022/05/13 10:20:45;;;;;;;4.97;3.87;;;18.80;88.30;;;;;;4928853;29;20244;-67
2022/05/13 10:23:18;;;;;;;4.93;3.30;;;18.40;87.00;;;;;;4926896;29;20217;-67
2022/05/13 10:26:01;;;;;;;4.37;3.10;;;18.20;88.30;;;;;;4927927;29;20213;-66
2022/05/13 10:28:38;;;;;;;5.70;3.67;;;18.20;89.70;;;;;;4926330;29;20208;-66
2022/05/13 10:31:18;;;;;;;5.57;3.13;;;18.00;89.00;;;;;;4910548;29;20271;-68
2022/05/13 10:33:58;;;;;;;4.07;3.13;;;17.60;90.20;;;;;;4923219;29;20204;-68
2022/05/13 10:36:31;;;;;;;6.80;3.10;;;17.60;90.50;;;;;;4910338;29;20259;-67
2022/05/13 10:39:02;;;;;;;4.90;3.60;;;17.60;90.30;;;;;;4927743;29;20219;-65
2022/05/13 10:41:34;;;;;;;3.67;3.30;;;17.50;90.50;;;;;;4925175;29;20222;-67
2022/05/13 10:44:20;;;;;;;5.83;3.80;;;17.50;90.30;;;;;;4926740;29;20203;-66
2022/05/13 10:47:02;;;;;;;4.83;3.63;;;17.60;90.20;;;;;;4928866;29;20218;-65
2022/05/13 10:49:34;;;;;;;5.40;3.23;;;17.80;90.40;;;;;;4925427;29;20199;-65
2022/05/13 10:52:17;;;;;;;5.13;3.07;;;18.00;90.20;;;;;;4927682;29;20203;-65
2022/05/13 10:54:53;;;;;;;6.93;3.27;;;18.10;89.80;;;;;;4929407;29;20229;-65
2022/05/13 10:58:11;;;;;;;6.37;3.67;;;18.20;88.80;;;;;;4915830;29;20678;-64
2022/05/13 11:01:04;;;;;;;6.73;2.50;;;18.70;88.70;;;;;;4888749;29;20552;-66
2022/05/13 11:03:34;;;;;;;4.20;2.13;;;19.20;83.00;;;;;;4918094;29;20288;-66
2022/05/13 11:06:19;;;;;;;2.77;2.27;;;19.30;80.30;;;;;;4919483;29;20265;-66
2022/05/13 11:09:18;;;;;;;4.47;2.40;;;19.20;76.00;;;;;;4920830;29;20210;-77
2022/05/13 11:11:45;;;;;;;5.33;2.47;;;19.20;76.10;;;;;;4913570;29;20210;-76
2022/05/13 11:14:33;;;;;;;5.73;2.67;;;19.90;73.20;;;;;;4927469;29;20213;-76
2022/05/13 11:17:23;;;;;;;6.07;2.13;;;19.50;72.40;;;;;;4927990;29;20205;-77
2022/05/13 11:20:07;;;;;;;3.73;2.10;;;20.00;73.40;;;;;;4929152;29;20284;-79
2022/05/13 11:22:40;;;;;;;6.80;2.10;;;20.10;72.30;;;;;;4925567;29;20533;-80
2022/05/13 11:25:56;;;;;;;6.67;2.70;;;19.90;74.10;;;;;;4929327;29;20194;-67
2022/05/13 11:28:45;;;;;;;7.43;2.83;;;18.90;72.70;;;;;;4915086;29;20206;-69
2022/05/13 11:31:36;;;;;;;4.77;3.13;;;18.40;73.50;;;;;;4928278;29;20192;-69
2022/05/13 11:34:22;;;;;;;6.80;2.77;;;18.60;72.80;;;;;;4921792;29;20296;-69
2022/05/13 11:37:04;;;;;;;4.47;2.23;;;19.40;71.10;;;;;;4917176;29;20236;-69
2022/05/13 11:39:44;;;;;;;4.13;2.67;;;19.70;70.50;;;;;;4926554;29;20299;-69
2022/05/13 11:43:18;;;;;;;4.37;2.93;;;19.60;70.30;;;;;;4928257;29;20190;-76
2022/05/13 11:45:52;;;;;;;4.17;2.50;;;19.90;69.10;;;;;;4909336;29;20241;-72
2022/05/13 11:48:27;;;;;;;6.57;2.63;;;19.50;67.40;;;;;;4923043;29;20295;-70
2022/05/13 11:51:18;;;;;;;4.77;2.20;;;19.40;67.20;;;;;;4913882;29;20967;-69
2022/05/13 11:53:54;;;;;;;4.37;2.30;;;19.10;68.50;;;;;;4925188;29;20211;-70
2022/05/13 11:56:28;;;;;;;5.87;2.67;;;19.10;68.30;;;;;;4921004;29;20271;-72
2022/05/13 11:59:03;;;;;;;3.90;2.57;;;18.90;67.50;;;;;;4926328;29;20206;-71
2022/05/13 12:01:38;;;;;;;12.00;3.57;;;18.80;69.00;;;;;;4918412;29;20274;-71
2022/05/13 12:04:18;;;;;;;11.63;3.57;;;18.90;68.80;;;;;;4926489;29;20253;-71
2022/05/13 12:06:50;;;;;;;3.47;2.37;;;18.60;70.10;;;;;;4927792;29;20772;-70
2022/05/13 12:09:31;;;;;;;3.90;2.30;;;18.70;70.20;;;;;;4926089;29;20294;-71
2022/05/13 12:12:37;;;;;;;6.00;2.43;;;18.90;70.00;;;;;;4917962;29;20188;-71
2022/05/13 12:15:24;;;;;;;7.93;2.83;;;18.70;69.90;;;;;;4928544;29;20208;-70
2022/05/13 12:18:27;;;;;;;5.30;2.43;;;19.30;70.20;;;;;;4922854;29;20203;-70
2022/05/13 12:21:14;;;;;;;4.60;2.90;;;20.00;67.40;;;;;;4927263;29;20194;-71
2022/05/13 12:24:00;;;;;;;5.80;2.50;;;19.80;67.90;;;;;;4921820;29;20288;-70
2022/05/13 12:26:51;;;;;;;3.47;2.07;;;19.80;68.40;;;;;;4921584;29;20342;-76
2022/05/13 12:29:38;;;;;;;6.20;2.53;;;19.60;67.30;;;;;;4925518;29;20202;-73
2022/05/13 12:32:04;;;;;;;3.17;1.73;;;19.20;68.00;;;;;;4926592;29;20198;-72
2022/05/13 12:37:46;;;;;;;5.67;2.20;;;19.20;67.90;;;;;;4882903;29;20625;-71
2022/05/13 12:40:28;;;;;;;4.80;2.47;;;19.10;66.40;;;;;;4927546;29;20207;-72
2022/05/13 12:42:54;;;;;;;2.87;2.20;;;19.20;67.90;;;;;;4915313;29;20212;-73
2022/05/13 12:45:34;;;;;;;7.27;2.43;;;19.20;67.30;;;;;;4928086;29;20187;-71
2022/05/13 12:48:09;;;;;;;6.40;2.43;;;18.80;66.60;;;;;;4923780;29;20286;-72
2022/05/13 12:51:13;;;;;;;3.73;2.57;;;18.60;67.30;;;;;;4927718;29;20198;-70
2022/05/13 12:53:56;;;;;;;4.17;2.23;;;18.40;67.10;;;;;;4925383;29;20236;-69
2022/05/13 12:56:39;;;;;;;5.23;2.03;;;18.20;68.50;;;;;;4919458;29;20544;-70
2022/05/13 12:59:04;;;;;;;7.03;2.40;;;18.00;69.00;;;;;;4924326;29;20212;-70
2022/05/13 13:01:31;;;;;;;4.90;2.43;;;17.90;69.00;;;;;;4930960;29;20334;-71
2022/05/13 13:03:57;;;;;;;5.07;2.27;;;17.70;68.10;;;;;;4927133;29;20207;-70
2022/05/13 13:06:25;;;;;;;3.60;2.43;;;17.50;70.20;;;;;;4930785;29;20207;-70
2022/05/13 13:08:52;;;;;;;6.10;2.57;;;17.50;71.60;;;;;;4929269;29;20273;-70
2022/05/13 13:11:30;;;;;;;6.03;2.67;;;17.70;70.70;;;;;;4931049;29;20294;-70
2022/05/13 13:14:18;;;;;;;6.37;2.33;;;17.60;71.00;;;;;;4924427;29;20238;-72
2022/05/13 13:16:56;;;;;;;4.13;2.57;;;17.50;71.20;;;;;;4922899;29;20206;-72
2022/05/13 13:19:24;;;;;;;5.13;2.60;;;17.30;71.90;;;;;;4927586;29;20295;-76
2022/05/13 13:21:56;;;;;;;6.90;3.33;;;17.40;72.80;;;;;;4929258;29;20218;-67
2022/05/13 13:24:29;;;;;;;7.37;3.43;;;17.40;73.60;;;;;;4928635;29;20680;-67
2022/05/13 13:26:54;;;;;;;6.13;2.40;;;17.40;73.60;;;;;;4929626;29;20298;-73
2022/05/13 13:29:28;;;;;;;2.20;1.87;;;17.60;74.30;;;;;;4928626;29;20217;-74
2022/05/13 13:32:00;;;;;;;6.77;2.93;;;18.00;73.60;;;;;;4930169;29;20359;-74
2022/05/13 13:34:36;;;;;;;4.90;2.90;;;18.30;73.70;;;;;;4927221;29;20508;-71